Time;durP1;ratioP1;P1;durP2;ratioP2;P2;SDS_P1;SDS_P2;PMS_P1;PMS_P2;Temp;Humidity;BMP_temperature;BMP_pressure;BME280_temperature;BME280_humidity;BME280_pressure;Samples;Min_cycle;Max_cycle;Signal;HPM_P1;HPM_P2
2023/07/15 04:02:25;;;;;;;;;;;20.20;99.90;;;;;;5139204;23;19925;-74
2023/07/15 04:04:51;;;;;;;;;;;20.20;99.90;;;;;;5035883;28;19917;-76
2023/07/15 04:07:16;;;;;;;;;;;20.10;99.90;;;;;;5035526;28;19917;-77
2023/07/15 04:09:42;;;;;;;;;;;20.10;99.90;;;;;;5035492;28;19921;-77
2023/07/15 04:12:08;;;;;;;;;;;20.10;99.90;;;;;;5033894;28;20500;-74
2023/07/15 04:14:33;;;;;;;;;;;20.10;99.90;;;;;;5017680;28;19917;-77
2023/07/15 04:16:59;;;;;;;;;;;20.00;99.90;;;;;;5035082;28;20291;-76
2023/07/15 04:19:24;;;;;;;;;;;20.00;99.90;;;;;;5033645;28;20005;-75
2023/07/15 04:21:50;;;;;;;;;;;20.00;99.90;;;;;;5023698;28;19917;-76
2023/07/15 04:24:15;;;;;;;;;;;20.00;99.90;;;;;;5032899;28;20000;-76
2023/07/15 04:26:41;;;;;;;;;;;20.00;99.90;;;;;;5029065;28;19917;-75
2023/07/15 04:29:06;;;;;;;;;;;20.00;99.90;;;;;;5016316;28;20361;-76
2023/07/15 04:31:32;;;;;;;;;;;20.00;99.90;;;;;;5018173;28;20027;-75
2023/07/15 04:33:58;;;;;;;;;;;20.00;99.90;;;;;;5000351;28;20035;-76
2023/07/15 04:36:23;;;;;;;;;;;20.00;99.90;;;;;;5034583;28;19924;-76
2023/07/15 04:38:49;;;;;;;;;;;20.00;99.90;;;;;;5034870;28;19917;-77
2023/07/15 04:41:15;;;;;;;;;;;20.00;99.90;;;;;;5022156;28;19921;-74
2023/07/15 04:43:41;;;;;;;;;;;19.90;99.90;;;;;;5014683;28;20285;-75
2023/07/15 04:46:07;;;;;;;;;;;20.00;99.90;;;;;;5013547;28;19917;-74
2023/07/15 04:48:33;;;;;;;;;;;19.90;99.90;;;;;;5014522;28;19968;-75
2023/07/15 04:50:59;;;;;;;;;;;19.90;99.90;;;;;;5015814;28;20008;-75
2023/07/15 04:53:25;;;;;;;;;;;19.90;99.90;;;;;;5017073;28;19953;-73
2023/07/15 04:55:51;;;;;;;;;;;19.90;99.90;;;;;;5029442;28;19917;-76
2023/07/15 04:58:18;;;;;;;;;;;19.90;99.90;;;;;;5024203;28;19988;-76
2023/07/15 05:00:43;;;;;;;;;;;20.00;99.90;;;;;;5028775;28;19917;-75
2023/07/15 05:03:09;;;;;;;;;;;19.90;99.90;;;;;;5028140;28;19917;-77
2023/07/15 05:05:35;;;;;;;;;;;20.00;99.90;;;;;;5029354;28;19924;-75
2023/07/15 05:08:14;;;;;;;;;;;20.00;99.90;;;;;;5033348;28;19917;-77
2023/07/15 05:10:40;;;;;;;;;;;20.00;99.90;;;;;;5015193;28;19979;-76
2023/07/15 05:13:07;;;;;;;;;;;20.00;99.90;;;;;;5013174;28;20379;-77
2023/07/15 05:15:33;;;;;;;;;;;20.10;99.90;;;;;;5012760;28;19917;-75
2023/07/15 05:17:59;;;;;;;;;;;20.10;99.90;;;;;;5024161;28;19917;-74
2023/07/15 05:20:25;;;;;;;;;;;20.10;99.90;;;;;;5016105;28;19928;-75
2023/07/15 05:22:51;;;;;;;;;;;20.10;99.90;;;;;;5027060;28;19917;-74
2023/07/15 05:25:16;;;;;;;;;;;20.20;99.90;;;;;;5027255;28;19924;-75
2023/07/15 05:27:42;;;;;;;;;;;20.20;99.90;;;;;;5030023;28;19917;-76
2023/07/15 05:30:10;;;;;;;;;;;20.30;99.90;;;;;;5016984;28;19921;-73
2023/07/15 05:32:37;;;;;;;;;;;20.30;99.90;;;;;;5014037;28;20272;-76
2023/07/15 05:35:02;;;;;;;;;;;20.30;99.90;;;;;;5012696;28;19926;-76
2023/07/15 05:37:28;;;;;;;;;;;20.40;99.90;;;;;;5023465;28;19924;-75
2023/07/15 05:39:53;;;;;;;;;;;20.40;99.90;;;;;;5032241;28;19921;-75
2023/07/15 05:42:19;;;;;;;;;;;20.40;99.90;;;;;;5029601;28;20458;-75
2023/07/15 05:44:45;;;;;;;;;;;20.40;99.90;;;;;;5023194;28;20341;-76
2023/07/15 05:47:11;;;;;;;;;;;20.40;99.90;;;;;;5015339;28;19972;-75
2023/07/15 05:49:36;;;;;;;;;;;20.40;99.90;;;;;;5012720;28;19927;-74
2023/07/15 05:52:02;;;;;;;;;;;20.50;99.90;;;;;;5024112;28;20004;-74
2023/07/15 05:54:27;;;;;;;;;;;20.60;99.90;;;;;;5014026;28;19918;-75
2023/07/15 05:56:53;;;;;;;;;;;20.70;99.90;;;;;;5012512;28;19924;-76
2023/07/15 05:59:19;;;;;;;;;;;20.70;99.90;;;;;;5013747;28;19918;-75
2023/07/15 06:01:46;;;;;;;;;;;20.70;99.90;;;;;;5013694;28;20000;-77
2023/07/15 06:04:11;;;;;;;;;;;20.80;99.90;;;;;;5012530;28;19917;-76
2023/07/15 06:06:37;;;;;;;;;;;20.80;99.90;;;;;;5013971;28;19917;-75
2023/07/15 06:09:02;;;;;;;;;;;20.80;99.90;;;;;;5012715;28;20028;-76
2023/07/15 06:11:28;;;;;;;;;;;20.80;99.90;;;;;;5014488;28;19928;-75
2023/07/15 06:13:53;;;;;;;;;;;20.80;99.90;;;;;;5017533;28;19957;-74
2023/07/15 06:16:19;;;;;;;;;;;20.90;99.90;;;;;;5017482;28;20035;-75
2023/07/15 06:18:44;;;;;;;;;;;20.90;99.90;;;;;;5016252;28;19921;-74
2023/07/15 06:21:10;;;;;;;;;;;20.90;99.90;;;;;;5029538;28;19916;-75
2023/07/15 06:23:36;;;;;;;;;;;21.00;99.90;;;;;;5031602;28;20000;-73
2023/07/15 06:26:01;;;;;;;;;;;21.00;99.90;;;;;;5037134;28;19917;-75
2023/07/15 06:28:27;;;;;;;;;;;21.00;99.90;;;;;;5028089;28;20356;-76
2023/07/15 06:31:02;;;;;;;;;;;21.00;99.90;;;;;;5015603;28;19927;-73
2023/07/15 06:33:31;;;;;;;;;;;21.00;99.90;;;;;;5024436;28;19924;-76
2023/07/15 06:35:56;;;;;;;;;;;21.00;99.90;;;;;;5030455;28;19917;-76
2023/07/15 06:38:22;;;;;;;;;;;21.10;99.90;;;;;;5018646;28;19921;-72
2023/07/15 06:40:47;;;;;;;;;;;21.10;99.90;;;;;;5036354;28;19967;-74
2023/07/15 06:43:13;;;;;;;;;;;21.10;99.90;;;;;;5035409;28;19917;-76
2023/07/15 06:45:39;;;;;;;;;;;21.10;99.90;;;;;;5035007;28;19917;-74
2023/07/15 06:48:04;;;;;;;;;;;21.10;99.90;;;;;;5036554;28;19917;-76
2023/07/15 06:50:30;;;;;;;;;;;21.20;99.90;;;;;;5033877;28;19928;-75
2023/07/15 06:52:55;;;;;;;;;;;21.30;99.90;;;;;;5035278;28;20064;-74
2023/07/15 06:55:21;;;;;;;;;;;21.40;99.90;;;;;;5019190;28;20380;-76
2023/07/15 06:57:47;;;;;;;;;;;21.40;99.90;;;;;;5018455;28;20402;-77
2023/07/15 07:00:13;;;;;;;;;;;21.50;99.90;;;;;;5018664;28;19924;-76
2023/07/15 07:02:39;;;;;;;;;;;21.50;99.90;;;;;;5036326;28;20308;-76
2023/07/15 07:05:04;;;;;;;;;;;21.60;99.90;;;;;;5027004;28;20040;-77
2023/07/15 07:07:30;;;;;;;;;;;21.60;99.90;;;;;;5032837;28;20328;-74
2023/07/15 07:09:55;;;;;;;;;;;21.60;99.90;;;;;;5035171;28;20434;-75
2023/07/15 07:12:22;;;;;;;;;;;21.70;99.90;;;;;;5027394;28;20435;-77
2023/07/15 07:14:48;;;;;;;;;;;21.70;99.90;;;;;;5025156;28;20270;-75
2023/07/15 07:17:13;;;;;;;;;;;21.70;99.90;;;;;;5009669;28;19924;-76
2023/07/15 07:19:39;;;;;;;;;;;21.70;99.90;;;;;;5018796;28;20384;-74
2023/07/15 07:22:05;;;;;;;;;;;21.80;99.90;;;;;;5032678;28;19936;-75
2023/07/15 07:24:30;;;;;;;;;;;21.80;99.90;;;;;;5029879;28;20323;-74
2023/07/15 07:26:56;;;;;;;;;;;21.80;99.90;;;;;;5034896;28;19970;-74
2023/07/15 07:29:22;;;;;;;;;;;21.80;99.90;;;;;;5026214;28;19921;-76
2023/07/15 07:31:47;;;;;;;;;;;21.80;99.90;;;;;;5017826;28;19925;-73
2023/07/15 07:34:13;;;;;;;;;;;21.80;99.90;;;;;;5027286;28;19971;-75
2023/07/15 07:36:38;;;;;;;;;;;21.90;99.90;;;;;;5033096;28;19917;-75
2023/07/15 07:39:04;;;;;;;;;;;21.90;99.90;;;;;;5025117;28;19968;-74
2023/07/15 07:41:29;;;;;;;;;;;22.00;99.90;;;;;;5018499;28;19925;-73
2023/07/15 07:43:55;;;;;;;;;;;22.00;99.90;;;;;;5029878;28;20317;-73
2023/07/15 07:46:20;;;;;;;;;;;22.00;99.90;;;;;;5032663;28;20022;-75
2023/07/15 07:48:46;;;;;;;;;;;22.10;99.90;;;;;;5021039;28;20004;-73
2023/07/15 07:51:11;;;;;;;;;;;22.20;99.90;;;;;;5035636;28;19994;-76
2023/07/15 07:53:37;;;;;;;;;;;22.20;99.90;;;;;;5019480;28;20356;-77
2023/07/15 07:56:04;;;;;;;;;;;22.20;99.90;;;;;;5021306;28;20276;-77
2023/07/15 07:58:30;;;;;;;;;;;22.10;99.90;;;;;;5031905;28;20287;-73
2023/07/15 08:00:55;;;;;;;;;;;22.20;99.90;;;;;;5027044;28;19921;-75
2023/07/15 08:03:21;;;;;;;;;;;22.20;99.90;;;;;;5024486;28;19925;-74
2023/07/15 08:05:47;;;;;;;;;;;22.20;99.90;;;;;;5024386;28;19917;-74
2023/07/15 08:08:13;;;;;;;;;;;22.30;99.90;;;;;;5030916;28;20380;-76
2023/07/15 08:10:42;;;;;;;;;;;22.30;99.90;;;;;;5033159;28;19921;-75
2023/07/15 08:13:07;;;;;;;;;;;22.30;99.90;;;;;;5035025;28;19917;-75
2023/07/15 08:15:34;;;;;;;;;;;22.30;99.90;;;;;;5033736;28;19917;-76
2023/07/15 08:18:00;;;;;;;;;;;22.40;99.90;;;;;;5035007;28;19917;-74
2023/07/15 08:20:25;;;;;;;;;;;22.40;99.90;;;;;;5034831;28;20402;-77
2023/07/15 08:22:51;;;;;;;;;;;22.40;99.90;;;;;;5033872;28;19916;-73
2023/07/15 08:25:16;;;;;;;;;;;22.50;99.90;;;;;;5035138;28;20261;-76
2023/07/15 08:27:42;;;;;;;;;;;22.50;99.90;;;;;;5033846;28;20319;-75
2023/07/15 08:30:08;;;;;;;;;;;22.50;99.90;;;;;;5021340;28;20034;-76
2023/07/15 08:32:33;;;;;;;;;;;22.50;99.90;;;;;;5013730;28;19955;-75
2023/07/15 08:34:59;;;;;;;;;;;22.50;99.90;;;;;;5015307;28;19917;-76
2023/07/15 08:37:25;;;;;;;;;;;22.60;99.90;;;;;;5013616;28;19924;-74
2023/07/15 08:39:51;;;;;;;;;;;22.70;99.90;;;;;;5002463;28;20020;-74
2023/07/15 08:42:19;;;;;;;;;;;22.80;99.90;;;;;;5033211;28;20096;-75
2023/07/15 08:44:49;;;;;;;;;;;22.90;99.90;;;;;;5033476;28;20410;-76
2023/07/15 08:47:18;;;;;;;;;;;22.80;99.90;;;;;;5033109;28;19917;-74
2023/07/15 08:49:44;;;;;;;;;;;22.90;99.90;;;;;;5034475;28;19921;-76
2023/07/15 08:52:11;;;;;;;;;;;22.90;99.90;;;;;;5034121;28;19917;-75
2023/07/15 08:54:36;;;;;;;;;;;22.90;99.90;;;;;;5031726;28;19917;-75
2023/07/15 08:57:02;;;;;;;;;;;22.80;99.90;;;;;;5015693;28;19921;-74
2023/07/15 08:59:27;;;;;;;;;;;22.80;99.90;;;;;;5013420;28;20068;-75
2023/07/15 09:01:53;;;;;;;;;;;22.80;99.90;;;;;;5013012;28;19917;-75
2023/07/15 09:04:18;;;;;;;;;;;22.90;99.90;;;;;;5013660;28;20304;-74
2023/07/15 09:06:44;;;;;;;;;;;22.90;99.90;;;;;;5013410;28;20349;-74
2023/07/15 09:09:09;;;;;;;;;;;23.00;99.90;;;;;;5017318;28;19917;-73
2023/07/15 09:11:39;;;;;;;;;;;23.00;99.90;;;;;;5032427;28;19960;-74
2023/07/15 09:14:11;;;;;;;;;;;22.90;99.90;;;;;;5032690;28;19917;-75
2023/07/15 09:16:40;;;;;;;;;;;23.00;99.90;;;;;;5034072;28;20016;-75
2023/07/15 09:19:05;;;;;;;;;;;23.10;99.90;;;;;;5032583;28;20011;-74
2023/07/15 09:21:31;;;;;;;;;;;23.10;99.90;;;;;;5025787;28;19961;-75
2023/07/15 09:23:59;;;;;;;;;;;23.20;99.90;;;;;;5013119;28;20011;-75
2023/07/15 09:26:25;;;;;;;;;;;23.20;99.90;;;;;;5014337;28;19921;-74
2023/07/15 09:28:51;;;;;;;;;;;23.40;99.90;;;;;;5012694;28;20274;-74
2023/07/15 09:31:23;;;;;;;;;;;23.50;99.90;;;;;;4996063;28;19921;-74
2023/07/15 09:33:49;;;;;;;;;;;23.70;99.90;;;;;;5012630;28;19918;-75
2023/07/15 09:36:14;;;;;;;;;;;23.90;99.90;;;;;;5012446;28;19921;-74
2023/07/15 09:38:40;;;;;;;;;;;24.10;99.90;;;;;;5012624;28;19979;-74
2023/07/15 09:41:08;;;;;;;;;;;24.10;99.90;;;;;;5012548;28;20008;-74
2023/07/15 09:43:45;;;;;;;;;;;24.00;99.90;;;;;;5012804;28;19928;-74
2023/07/15 09:46:12;;;;;;;;;;;23.90;99.90;;;;;;5013283;28;19918;-77
2023/07/15 09:48:37;;;;;;;;;;;23.70;99.90;;;;;;5030844;28;19967;-75
2023/07/15 09:51:03;;;;;;;;;;;23.70;99.90;;;;;;5032147;28;19921;-74
2023/07/15 09:53:30;;;;;;;;;;;23.80;99.90;;;;;;5032212;28;20338;-74
2023/07/15 09:55:56;;;;;;;;;;;23.90;99.90;;;;;;5026911;28;19921;-75
2023/07/15 09:58:22;;;;;;;;;;;23.90;99.90;;;;;;5016837;28;19927;-75
2023/07/15 10:00:50;;;;;;;;;;;24.10;99.90;;;;;;5025803;28;19920;-76
2023/07/15 10:03:34;;;;;;;;;;;24.30;99.90;;;;;;5024530;28;20372;-75
2023/07/15 10:06:00;;;;;;;;;;;24.50;99.90;;;;;;5026264;28;19917;-77
2023/07/15 10:08:26;;;;;;;;;;;24.50;99.90;;;;;;5024614;28;19921;-75
2023/07/15 10:10:52;;;;;;;;;;;24.50;99.90;;;;;;5023809;28;20296;-74
2023/07/15 10:13:18;;;;;;;;;;;24.50;99.90;;;;;;5023005;28;19924;-76
2023/07/15 10:15:44;;;;;;;;;;;24.70;99.90;;;;;;5024087;28;19917;-76
2023/07/15 10:18:13;;;;;;;;;;;24.70;99.90;;;;;;5027658;28;19923;-75
2023/07/15 10:20:45;;;;;;;;;;;24.80;99.90;;;;;;5028112;28;20316;-74
2023/07/15 10:23:11;;;;;;;;;;;24.70;99.90;;;;;;5027994;28;19917;-73
2023/07/15 10:25:40;;;;;;;;;;;24.70;99.90;;;;;;5027438;28;20012;-77
2023/07/15 10:28:10;;;;;;;;;;;24.80;99.90;;;;;;5027252;28;20008;-73
2023/07/15 10:30:36;;;;;;;;;;;24.80;99.90;;;;;;5024653;28;19968;-74
2023/07/15 10:33:03;;;;;;;;;;;24.90;99.90;;;;;;5006107;28;19971;-74
2023/07/15 10:35:32;;;;;;;;;;;24.80;99.90;;;;;;5027355;28;20387;-74
2023/07/15 10:38:02;;;;;;;;;;;24.70;99.90;;;;;;5027834;28;19921;-75
2023/07/15 10:40:47;;;;;;;;;;;24.60;99.90;;;;;;5027085;28;20375;-76
2023/07/15 10:43:16;;;;;;;;;;;24.60;99.90;;;;;;5019499;28;19917;-74
2023/07/15 10:45:42;;;;;;;;;;;24.60;99.90;;;;;;5013885;28;20011;-76
2023/07/15 10:48:08;;;;;;;;;;;24.50;99.90;;;;;;5011929;28;20049;-75
2023/07/15 10:50:35;;;;;;;;;;;24.40;99.90;;;;;;5011135;28;19940;-73
2023/07/15 10:53:21;;;;;;;;;;;24.40;99.90;;;;;;5012101;28;19918;-74
2023/07/15 10:55:52;;;;;;;;;;;24.50;99.90;;;;;;5012390;28;19918;-75
2023/07/15 10:58:18;;;;;;;;;;;24.60;99.90;;;;;;5014933;28;19917;-75
2023/07/15 11:00:43;;;;;;;;;;;24.70;99.90;;;;;;5015369;28;19939;-76
2023/07/15 11:03:09;;;;;;;;;;;24.80;99.90;;;;;;5015476;28;20423;-77
2023/07/15 11:05:35;;;;;;;;;;;24.90;99.90;;;;;;5015511;28;19928;-77
2023/07/15 11:08:04;;;;;;;;;;;25.00;99.90;;;;;;5015508;28;20285;-74
2023/07/15 11:10:33;;;;;;;;;;;25.00;99.90;;;;;;5015545;28;19925;-75
2023/07/15 11:13:09;;;;;;;;;;;25.10;99.90;;;;;;5016629;28;20014;-75
2023/07/15 11:15:35;;;;;;;;;;;25.20;99.90;;;;;;5015592;28;20404;-75
2023/07/15 11:18:01;;;;;;;;;;;25.10;99.90;;;;;;5015215;28;20014;-76
2023/07/15 11:20:26;;;;;;;;;;;25.00;99.90;;;;;;5016439;28;20064;-75
2023/07/15 11:22:52;;;;;;;;;;;25.00;99.90;;;;;;5014896;28;20009;-75
2023/07/15 11:25:18;;;;;;;;;;;25.10;99.90;;;;;;5016454;28;19918;-75
2023/07/15 11:27:43;;;;;;;;;;;25.20;99.90;;;;;;5015344;28;20022;-74
2023/07/15 11:30:09;;;;;;;;;;;25.10;99.90;;;;;;5015373;28;19925;-76
2023/07/15 11:32:35;;;;;;;;;;;25.20;99.90;;;;;;5016312;28;19917;-74
2023/07/15 11:35:09;;;;;;;;;;;25.10;99.90;;;;;;5016332;28;20360;-75
2023/07/15 11:37:41;;;;;;;;;;;25.10;99.90;;;;;;5014742;28;19923;-76
2023/07/15 11:40:07;;;;;;;;;;;25.10;99.90;;;;;;5014718;28;19924;-75
2023/07/15 11:42:35;;;;;;;;;;;25.10;99.90;;;;;;5015123;28;19917;-76
2023/07/15 11:45:01;;;;;;;;;;;25.20;99.90;;;;;;5014000;28;19987;-74
2023/07/15 11:47:27;;;;;;;;;;;25.20;99.90;;;;;;5014089;28;19931;-74
2023/07/15 11:49:58;;;;;;;;;;;25.20;99.90;;;;;;5014471;28;20019;-74
2023/07/15 11:52:23;;;;;;;;;;;25.30;99.90;;;;;;5012304;28;19924;-75
2023/07/15 11:54:49;;;;;;;;;;;25.30;99.90;;;;;;5012142;28;19918;-75
2023/07/15 11:57:22;;;;;;;;;;;25.40;99.90;;;;;;5012593;28;19924;-76
2023/07/15 11:59:51;;;;;;;;;;;25.50;99.90;;;;;;5013998;28;19924;-75
2023/07/15 12:02:17;;;;;;;;;;;25.60;99.90;;;;;;5012487;28;19925;-80
2023/07/15 12:04:42;;;;;;;;;;;25.60;99.90;;;;;;5012950;28;20294;-74
2023/07/15 12:07:08;;;;;;;;;;;25.50;99.90;;;;;;5013779;28;19924;-75
2023/07/15 12:09:33;;;;;;;;;;;25.50;99.90;;;;;;5013642;28;19933;-75
2023/07/15 12:11:59;;;;;;;;;;;25.70;99.90;;;;;;5015145;28;19917;-77
2023/07/15 12:14:25;;;;;;;;;;;25.90;99.90;;;;;;5014323;28;20111;-77
2023/07/15 12:16:53;;;;;;;;;;;26.00;99.90;;;;;;5014020;28;20293;-76
2023/07/15 12:19:19;;;;;;;;;;;25.90;99.90;;;;;;5015171;28;19917;-79
2023/07/15 12:21:45;;;;;;;;;;;25.90;99.90;;;;;;5015596;28;20273;-75
2023/07/15 12:24:10;;;;;;;;;;;25.90;99.90;;;;;;5013693;28;19917;-77
2023/07/15 12:26:36;;;;;;;;;;;25.90;99.90;;;;;;5014284;28;19963;-76
2023/07/15 12:29:01;;;;;;;;;;;25.70;99.90;;;;;;5015524;28;19917;-77
2023/07/15 12:31:27;;;;;;;;;;;25.60;99.90;;;;;;5016479;28;20365;-75
2023/07/15 12:33:53;;;;;;;;;;;25.50;99.90;;;;;;5015790;28;19975;-74
2023/07/15 12:36:19;;;;;;;;;;;25.50;99.90;;;;;;5013818;28;20007;-76
2023/07/15 12:38:44;;;;;;;;;;;25.50;99.90;;;;;;5015320;28;19917;-77
2023/07/15 12:41:11;;;;;;;;;;;25.40;99.90;;;;;;5013530;28;19956;-78
2023/07/15 12:43:38;;;;;;;;;;;25.30;99.90;;;;;;5013576;28;20277;-77
2023/07/15 12:46:04;;;;;;;;;;;25.30;99.90;;;;;;5013713;28;19944;-78
2023/07/15 12:48:29;;;;;;;;;;;25.30;99.90;;;;;;5013532;28;19921;-77
2023/07/15 12:50:55;;;;;;;;;;;25.30;99.90;;;;;;5013432;28;19925;-77
2023/07/15 12:53:22;;;;;;;;;;;25.10;99.90;;;;;;5014745;28;20292;-74
2023/07/15 12:55:47;;;;;;;;;;;24.90;99.90;;;;;;5013351;28;20012;-78
2023/07/15 12:58:13;;;;;;;;;;;24.60;99.90;;;;;;5013456;28;20003;-76
2023/07/15 13:00:38;;;;;;;;;;;24.30;99.90;;;;;;5013203;28;19941;-80
2023/07/15 13:03:04;;;;;;;;;;;24.20;99.90;;;;;;5013348;28;19917;-76
2023/07/15 13:05:30;;;;;;;;;;;24.10;99.90;;;;;;5015009;28;19921;-74
2023/07/15 13:07:55;;;;;;;;;;;24.10;99.90;;;;;;5013105;28;19975;-78
2023/07/15 13:10:21;;;;;;;;;;;24.00;99.90;;;;;;5014067;28;19972;-75
2023/07/15 13:12:47;;;;;;;;;;;24.00;99.90;;;;;;5013003;28;19921;-78
2023/07/15 13:15:12;;;;;;;;;;;24.10;99.90;;;;;;5013999;28;19918;-74
2023/07/15 13:17:41;;;;;;;;;;;24.30;99.90;;;;;;5012884;28;20420;-77
2023/07/15 13:20:09;;;;;;;;;;;24.50;99.90;;;;;;5012427;28;20012;-76
2023/07/15 13:22:35;;;;;;;;;;;24.50;99.90;;;;;;5013180;28;20353;-73
2023/07/15 13:25:01;;;;;;;;;;;24.50;99.90;;;;;;5012802;28;19924;-76
2023/07/15 13:27:26;;;;;;;;;;;24.50;99.90;;;;;;5012829;28;19917;-76
2023/07/15 13:29:52;;;;;;;;;;;24.50;99.90;;;;;;5012677;28;19928;-77
2023/07/15 13:32:17;;;;;;;;;;;24.50;99.90;;;;;;5013821;28;19921;-78
2023/07/15 13:34:43;;;;;;;;;;;24.50;99.90;;;;;;5012697;28;19968;-73
2023/07/15 13:37:08;;;;;;;;;;;24.60;99.90;;;;;;5014025;28;19967;-76
2023/07/15 13:39:38;;;;;;;;;;;24.80;99.90;;;;;;5012636;28;19921;-76
2023/07/15 13:42:04;;;;;;;;;;;24.90;99.90;;;;;;5013744;28;19917;-77
2023/07/15 13:44:31;;;;;;;;;;;25.10;99.90;;;;;;5012624;28;19917;-75
2023/07/15 13:46:56;;;;;;;;;;;25.20;99.90;;;;;;5013878;28;19917;-75
2023/07/15 13:49:22;;;;;;;;;;;25.20;99.90;;;;;;5013794;28;19924;-74
2023/07/15 13:51:48;;;;;;;;;;;25.30;99.90;;;;;;5012435;28;19921;-76
2023/07/15 13:54:13;;;;;;;;;;;25.50;99.90;;;;;;5014248;28;19924;-76
2023/07/15 13:56:39;;;;;;;;;;;25.50;99.90;;;;;;5012732;28;19917;-74
2023/07/15 13:59:04;;;;;;;;;;;25.60;99.90;;;;;;5013571;28;20012;-76
2023/07/15 14:01:30;;;;;;;;;;;25.50;99.90;;;;;;5013353;28;20008;-76
2023/07/15 14:03:56;;;;;;;;;;;25.40;99.90;;;;;;5012677;28;19980;-77
2023/07/15 14:06:22;;;;;;;;;;;25.20;99.90;;;;;;5012595;28;20385;-73
2023/07/15 14:08:47;;;;;;;;;;;25.20;99.90;;;;;;5013614;28;19968;-73
2023/07/15 14:11:13;;;;;;;;;;;25.40;99.90;;;;;;5012339;28;20427;-75
2023/07/15 14:13:38;;;;;;;;;;;25.50;99.90;;;;;;5013534;28;19917;-78
2023/07/15 14:16:04;;;;;;;;;;;25.50;99.90;;;;;;5014035;28;19921;-74
2023/07/15 14:18:30;;;;;;;;;;;25.40;99.90;;;;;;5013462;28;19918;-76
2023/07/15 14:20:55;;;;;;;;;;;25.40;99.90;;;;;;5013405;28;19922;-75
2023/07/15 14:23:21;;;;;;;;;;;25.30;99.90;;;;;;5014048;28;20369;-77
2023/07/15 14:25:46;;;;;;;;;;;25.30;99.90;;;;;;5013994;28;19984;-74
2023/07/15 14:28:12;;;;;;;;;;;25.30;99.90;;;;;;5012136;28;20317;-73
2023/07/15 14:30:39;;;;;;;;;;;25.20;99.90;;;;;;5013383;28;19922;-75
2023/07/15 14:33:04;;;;;;;;;;;25.20;99.90;;;;;;5015287;28;19960;-75
2023/07/15 14:35:30;;;;;;;;;;;25.20;99.90;;;;;;5017309;28;19972;-74
2023/07/15 14:37:55;;;;;;;;;;;25.10;99.90;;;;;;5015926;28;19926;-74
2023/07/15 14:40:21;;;;;;;;;;;25.00;99.90;;;;;;5015560;28;19921;-75
2023/07/15 14:42:46;;;;;;;;;;;25.10;99.90;;;;;;5015785;28;19921;-76
2023/07/15 14:45:12;;;;;;;;;;;25.40;99.90;;;;;;5015952;28;19917;-73
2023/07/15 14:47:39;;;;;;;;;;;25.60;99.90;;;;;;5016860;28;20234;-76
2023/07/15 14:50:05;;;;;;;;;;;25.60;99.90;;;;;;5016874;28;20432;-77
2023/07/15 14:52:31;;;;;;;;;;;25.60;99.90;;;;;;5017272;28;19956;-76
2023/07/15 14:54:56;;;;;;;;;;;25.80;99.90;;;;;;5016952;28;20277;-75
2023/07/15 14:57:22;;;;;;;;;;;25.90;99.90;;;;;;5015580;28;19917;-76
2023/07/15 14:59:48;;;;;;;;;;;26.10;99.90;;;;;;5015453;28;19971;-75
2023/07/15 15:02:13;;;;;;;;;;;26.30;99.90;;;;;;5016476;28;19921;-76
2023/07/15 15:04:40;;;;;;;;;;;26.40;99.90;;;;;;5016625;28;19917;-76
2023/07/15 15:07:05;;;;;;;;;;;26.40;99.90;;;;;;5017138;28;20270;-73
2023/07/15 15:09:31;;;;;;;;;;;26.60;99.90;;;;;;5016744;28;20006;-76
2023/07/15 15:11:56;;;;;;;;;;;26.60;99.90;;;;;;5016447;28;19924;-73
2023/07/15 15:14:23;;;;;;;;;;;26.70;99.90;;;;;;5015236;28;19917;-74
2023/07/15 15:16:48;;;;;;;;;;;26.70;99.90;;;;;;5016326;28;20270;-74
2023/07/15 15:19:14;;;;;;;;;;;26.50;99.90;;;;;;5015492;28;20004;-74
2023/07/15 15:21:40;;;;;;;;;;;26.50;99.90;;;;;;5015113;28;20328;-73
2023/07/15 15:24:07;;;;;;;;;;;26.40;99.90;;;;;;5015428;28;19921;-75
2023/07/15 15:26:33;;;;;;;;;;;26.30;99.90;;;;;;5015322;28;19917;-76
2023/07/15 15:28:59;;;;;;;;;;;26.20;99.90;;;;;;5016226;28;20348;-77
2023/07/15 15:31:25;;;;;;;;;;;26.10;99.90;;;;;;5014758;28;19921;-75
2023/07/15 15:33:50;;;;;;;;;;;26.20;99.90;;;;;;5016123;28;19917;-74
2023/07/15 15:36:16;;;;;;;;;;;26.20;99.90;;;;;;5014785;28;19921;-75
2023/07/15 15:38:41;;;;;;;;;;;26.40;99.90;;;;;;5016058;28;20285;-74
2023/07/15 15:41:07;;;;;;;;;;;26.50;99.90;;;;;;5014667;28;19921;-75
2023/07/15 15:43:33;;;;;;;;;;;26.70;99.90;;;;;;5015207;28;19917;-75
2023/07/15 15:45:58;;;;;;;;;;;26.80;99.90;;;;;;5016015;28;19924;-75
2023/07/15 15:48:24;;;;;;;;;;;26.90;99.90;;;;;;5014662;28;19917;-77
2023/07/15 15:50:49;;;;;;;;;;;26.90;99.90;;;;;;5015655;28;19921;-75
2023/07/15 15:53:15;;;;;;;;;;;27.00;99.90;;;;;;5014801;28;20373;-77
2023/07/15 15:55:41;;;;;;;;;;;27.00;99.90;;;;;;5014785;28;19932;-75
2023/07/15 15:58:06;;;;;;;;;;;27.10;99.90;;;;;;5014328;28;20415;-75
2023/07/15 16:00:32;;;;;;;;;;;27.20;99.90;;;;;;5014155;28;19924;-77
2023/07/15 16:02:57;;;;;;;;;;;27.20;99.90;;;;;;5014357;28;19917;-78
2023/07/15 16:05:23;;;;;;;;;;;27.00;99.90;;;;;;5014172;28;20013;-75
2023/07/15 16:07:48;;;;;;;;;;;26.80;99.90;;;;;;5014206;28;19944;-77
2023/07/15 16:10:14;;;;;;;;;;;26.60;99.90;;;;;;5014119;28;19926;-76
2023/07/15 16:12:40;;;;;;;;;;;26.40;99.90;;;;;;4997883;28;19967;-75
2023/07/15 16:15:06;;;;;;;;;;;26.30;99.90;;;;;;5014054;28;19971;-75
2023/07/15 16:17:31;;;;;;;;;;;25.90;99.90;;;;;;5015864;28;19917;-75
2023/07/15 16:19:57;;;;;;;;;;;25.10;99.90;;;;;;5014127;28;19917;-75
2023/07/15 16:22:22;;;;;;;;;;;23.90;99.90;;;;;;5014121;28;19918;-75
2023/07/15 16:24:48;;;;;;;;;;;23.10;99.90;;;;;;5014053;28;19923;-74
2023/07/15 16:27:13;;;;;;;;;;;22.40;99.90;;;;;;5013748;28;19917;-75
2023/07/15 16:29:39;;;;;;;;;;;21.80;99.90;;;;;;5030666;28;20284;-77
2023/07/15 16:32:04;;;;;;;;;;;21.10;99.90;;;;;;5014010;28;20383;-78
2023/07/15 16:34:30;;;;;;;;;;;20.40;99.90;;;;;;5014129;28;19923;-77
2023/07/15 16:36:55;;;;;;;;;;;20.00;99.90;;;;;;5015099;28;19993;-76
2023/07/15 16:39:21;;;;;;;;;;;19.80;99.90;;;;;;5013796;28;19944;-75
2023/07/15 16:41:46;;;;;;;;;;;19.50;99.90;;;;;;5015149;28;19921;-75
2023/07/15 16:44:12;;;;;;;;;;;19.30;99.90;;;;;;5013564;28;19924;-76
2023/07/15 16:46:37;;;;;;;;;;;19.10;99.90;;;;;;5013600;28;20004;-77
2023/07/15 16:49:03;;;;;;;;;;;19.00;99.90;;;;;;5013956;28;19924;-76
2023/07/15 16:51:28;;;;;;;;;;;19.00;99.90;;;;;;5013411;28;19922;-76
2023/07/15 16:53:54;;;;;;;;;;;18.80;99.90;;;;;;5013546;28;19924;-76
2023/07/15 16:56:19;;;;;;;;;;;18.90;99.90;;;;;;5013656;28;19961;-77
2023/07/15 16:58:45;;;;;;;;;;;18.90;99.90;;;;;;5013501;28;19927;-76
2023/07/15 17:01:10;;;;;;;;;;;18.90;99.90;;;;;;5014747;28;20262;-74
2023/07/15 17:03:36;;;;;;;;;;;19.00;99.90;;;;;;5013485;28;19925;-74
2023/07/15 17:06:02;;;;;;;;;;;19.10;99.90;;;;;;5014684;28;19968;-77
2023/07/15 17:08:27;;;;;;;;;;;19.20;99.90;;;;;;5013214;28;19925;-76
2023/07/15 17:10:53;;;;;;;;;;;19.10;99.90;;;;;;5014705;28;19972;-76
2023/07/15 17:13:18;;;;;;;;;;;19.20;99.90;;;;;;5013302;28;20299;-75
2023/07/15 17:15:44;;;;;;;;;;;19.20;99.90;;;;;;5013129;28;19923;-74
2023/07/15 17:18:09;;;;;;;;;;;19.10;99.90;;;;;;5014785;28;19964;-77
2023/07/15 17:20:35;;;;;;;;;;;19.00;99.90;;;;;;5013107;28;19932;-75
2023/07/15 17:23:00;;;;;;;;;;;19.10;99.90;;;;;;5013113;28;19940;-75
2023/07/15 17:25:26;;;;;;;;;;;19.10;99.90;;;;;;5013442;28;19917;-76
2023/07/15 17:27:52;;;;;;;;;;;19.00;99.90;;;;;;5013094;28;19967;-75
2023/07/15 17:30:18;;;;;;;;;;;19.00;99.90;;;;;;5012773;28;19921;-75
2023/07/15 17:32:43;;;;;;;;;;;19.10;99.90;;;;;;5012968;28;19918;-77
2023/07/15 17:35:09;;;;;;;;;;;19.10;99.90;;;;;;5012893;28;19917;-78
2023/07/15 17:37:34;;;;;;;;;;;19.20;99.90;;;;;;5014426;28;19941;-76
2023/07/15 17:40:00;;;;;;;;;;;19.10;99.90;;;;;;5014271;28;19939;-77
2023/07/15 17:42:25;;;;;;;;;;;19.20;99.90;;;;;;5013962;28;19925;-76
2023/07/15 17:44:51;;;;;;;;;;;19.20;99.90;;;;;;5012801;28;19921;-75
2023/07/15 17:47:16;;;;;;;;;;;19.20;99.90;;;;;;5012882;28;19918;-74
2023/07/15 17:49:42;;;;;;;;;;;19.30;99.90;;;;;;5013948;28;20285;-76
2023/07/15 17:52:10;;;;;;;;;;;19.30;99.90;;;;;;5012995;28;20339;-78
2023/07/15 17:54:36;;;;;;;;;;;19.30;99.90;;;;;;5012973;28;19967;-75
2023/07/15 17:57:02;;;;;;;;;;;19.30;99.90;;;;;;5013040;28;20277;-74
2023/07/15 17:59:27;;;;;;;;;;;19.30;99.90;;;;;;5012939;28;20380;-75
2023/07/15 18:01:53;;;;;;;;;;;19.40;99.90;;;;;;5012413;28;19967;-76
2023/07/15 18:04:18;;;;;;;;;;;19.40;99.90;;;;;;5012964;28;20350;-76
2023/07/15 18:06:44;;;;;;;;;;;19.50;99.90;;;;;;5014962;28;20361;-74
2023/07/15 18:09:10;;;;;;;;;;;19.60;99.90;;;;;;5017775;28;19955;-75
2023/07/15 18:11:36;;;;;;;;;;;19.60;99.90;;;;;;5017589;28;20423;-78